sensor_id;sensor_type;location;lat;lon;timestamp;P1;durP1;ratioP1;P2;durP2;ratioP2
77854;SDS011;67046;50.088;14.336;2023-02-12T00:00:07;16.60;;;10.60;;
77854;SDS011;67046;50.088;14.336;2023-02-12T00:01:00;15.70;;;10.10;;
77854;SDS011;67046;50.088;14.336;2023-02-12T00:01:52;15.40;;;10.10;;
77854;SDS011;67046;50.088;14.336;2023-02-12T00:02:24;16.20;;;10.90;;
77854;SDS011;67046;50.088;14.336;2023-02-12T00:02:56;16.20;;;11.10;;
77854;SDS011;67046;50.088;14.336;2023-02-12T00:03:28;17.90;;;10.60;;
77854;SDS011;67046;50.088;14.336;2023-02-12T00:04:00;17.30;;;11.60;;
77854;SDS011;67046;50.088;14.336;2023-02-12T00:04:32;16.70;;;11.40;;
77854;SDS011;67046;50.088;14.336;2023-02-12T00:05:05;16.40;;;11.10;;
77854;SDS011;67046;50.088;14.336;2023-02-12T00:05:38;16.70;;;11.80;;
77854;SDS011;67046;50.088;14.336;2023-02-12T00:06:14;17.40;;;11.80;;
77854;SDS011;67046;50.088;14.336;2023-02-12T00:06:46;16.60;;;10.70;;
77854;SDS011;67046;50.088;14.336;2023-02-12T00:07:18;18.00;;;11.30;;
77854;SDS011;67046;50.088;14.336;2023-02-12T00:07:50;19.80;;;12.00;;
77854;SDS011;67046;50.088;14.336;2023-02-12T00:08:24;16.70;;;11.80;;
77854;SDS011;67046;50.088;14.336;2023-02-12T00:08:56;17.20;;;11.60;;
77854;SDS011;67046;50.088;14.336;2023-02-12T00:09:29;14.80;;;10.10;;
77854;SDS011;67046;50.088;14.336;2023-02-12T00:10:01;15.90;;;10.50;;
77854;SDS011;67046;50.088;14.336;2023-02-12T00:10:33;16.00;;;11.20;;
77854;SDS011;67046;50.088;14.336;2023-02-12T00:11:09;16.80;;;10.90;;
77854;SDS011;67046;50.088;14.336;2023-02-12T00:11:46;17.20;;;10.60;;
77854;SDS011;67046;50.088;14.336;2023-02-12T00:12:18;15.50;;;10.90;;
77854;SDS011;67046;50.088;14.336;2023-02-12T00:12:52;17.50;;;11.60;;
77854;SDS011;67046;50.088;14.336;2023-02-12T00:13:24;16.10;;;11.10;;
77854;SDS011;67046;50.088;14.336;2023-02-12T00:13:56;15.60;;;10.70;;
77854;SDS011;67046;50.088;14.336;2023-02-12T00:14:28;15.30;;;10.40;;
77854;SDS011;67046;50.088;14.336;2023-02-12T00:15:00;15.20;;;10.70;;
77854;SDS011;67046;50.088;14.336;2023-02-12T00:15:32;16.10;;;11.00;;
77854;SDS011;67046;50.088;14.336;2023-02-12T00:16:09;15.40;;;11.10;;
77854;SDS011;67046;50.088;14.336;2023-02-12T00:16:43;18.40;;;11.00;;
77854;SDS011;67046;50.088;14.336;2023-02-12T00:17:15;16.20;;;11.10;;
77854;SDS011;67046;50.088;14.336;2023-02-12T00:17:47;15.10;;;10.20;;
77854;SDS011;67046;50.088;14.336;2023-02-12T00:18:19;15.10;;;10.90;;
77854;SDS011;67046;50.088;14.336;2023-02-12T00:18:52;17.10;;;12.10;;
77854;SDS011;67046;50.088;14.336;2023-02-12T00:19:25;19.00;;;11.90;;
77854;SDS011;67046;50.088;14.336;2023-02-12T00:19:57;18.00;;;12.00;;
77854;SDS011;67046;50.088;14.336;2023-02-12T00:20:29;16.90;;;10.90;;
77854;SDS011;67046;50.088;14.336;2023-02-12T00:21:01;15.50;;;11.20;;
77854;SDS011;67046;50.088;14.336;2023-02-12T00:21:33;15.90;;;11.00;;
77854;SDS011;67046;50.088;14.336;2023-02-12T00:22:06;14.50;;;10.50;;
77854;SDS011;67046;50.088;14.336;2023-02-12T00:22:38;16.10;;;11.60;;
77854;SDS011;67046;50.088;14.336;2023-02-12T00:23:10;15.70;;;10.60;;
77854;SDS011;67046;50.088;14.336;2023-02-12T00:23:42;15.90;;;11.10;;
77854;SDS011;67046;50.088;14.336;2023-02-12T00:24:46;15.80;;;10.00;;
77854;SDS011;67046;50.088;14.336;2023-02-12T00:25:18;17.10;;;11.20;;
77854;SDS011;67046;50.088;14.336;2023-02-12T00:25:50;16.00;;;11.50;;
77854;SDS011;67046;50.088;14.336;2023-02-12T00:26:22;18.40;;;10.60;;
77854;SDS011;67046;50.088;14.336;2023-02-12T00:26:54;15.80;;;11.30;;
77854;SDS011;67046;50.088;14.336;2023-02-12T00:27:26;16.40;;;10.90;;
77854;SDS011;67046;50.088;14.336;2023-02-12T00:27:58;15.60;;;11.20;;
77854;SDS011;67046;50.088;14.336;2023-02-12T00:28:31;19.80;;;12.50;;
77854;SDS011;67046;50.088;14.336;2023-02-12T00:29:03;16.00;;;10.80;;
77854;SDS011;67046;50.088;14.336;2023-02-12T00:29:35;14.80;;;11.30;;
77854;SDS011;67046;50.088;14.336;2023-02-12T00:30:08;19.00;;;12.00;;
77854;SDS011;67046;50.088;14.336;2023-02-12T00:31:14;16.80;;;10.50;;
77854;SDS011;67046;50.088;14.336;2023-02-12T00:31:47;16.40;;;10.90;;
77854;SDS011;67046;50.088;14.336;2023-02-12T00:32:19;17.30;;;10.60;;
77854;SDS011;67046;50.088;14.336;2023-02-12T00:32:51;17.30;;;11.50;;
77854;SDS011;67046;50.088;14.336;2023-02-12T00:33:23;16.50;;;11.20;;
77854;SDS011;67046;50.088;14.336;2023-02-12T00:33:55;15.30;;;10.60;;
77854;SDS011;67046;50.088;14.336;2023-02-12T00:34:29;14.10;;;10.20;;
77854;SDS011;67046;50.088;14.336;2023-02-12T00:35:02;16.20;;;10.70;;
77854;SDS011;67046;50.088;14.336;2023-02-12T00:35:35;17.30;;;11.20;;
77854;SDS011;67046;50.088;14.336;2023-02-12T00:36:07;18.50;;;11.60;;
77854;SDS011;67046;50.088;14.336;2023-02-12T00:36:40;15.60;;;10.50;;
77854;SDS011;67046;50.088;14.336;2023-02-12T00:37:12;14.80;;;10.30;;
77854;SDS011;67046;50.088;14.336;2023-02-12T00:37:45;14.60;;;10.30;;
77854;SDS011;67046;50.088;14.336;2023-02-12T00:38:17;16.50;;;11.30;;
77854;SDS011;67046;50.088;14.336;2023-02-12T00:39:22;17.00;;;10.40;;
77854;SDS011;67046;50.088;14.336;2023-02-12T00:39:54;14.30;;;9.90;;
77854;SDS011;67046;50.088;14.336;2023-02-12T00:40:26;15.70;;;10.80;;
77854;SDS011;67046;50.088;14.336;2023-02-12T00:40:58;15.90;;;10.60;;
77854;SDS011;67046;50.088;14.336;2023-02-12T00:41:30;17.50;;;11.30;;
77854;SDS011;67046;50.088;14.336;2023-02-12T00:42:02;14.90;;;10.60;;
77854;SDS011;67046;50.088;14.336;2023-02-12T00:42:35;15.30;;;10.30;;
77854;SDS011;67046;50.088;14.336;2023-02-12T00:43:07;14.90;;;10.20;;
77854;SDS011;67046;50.088;14.336;2023-02-12T00:43:39;16.70;;;10.60;;
77854;SDS011;67046;50.088;14.336;2023-02-12T00:44:11;14.10;;;9.60;;
77854;SDS011;67046;50.088;14.336;2023-02-12T00:44:43;12.90;;;9.90;;
77854;SDS011;67046;50.088;14.336;2023-02-12T00:45:15;14.30;;;10.20;;
77854;SDS011;67046;50.088;14.336;2023-02-12T00:45:47;15.50;;;10.30;;
77854;SDS011;67046;50.088;14.336;2023-02-12T00:46:19;12.90;;;9.50;;
77854;SDS011;67046;50.088;14.336;2023-02-12T00:46:52;15.70;;;10.40;;
77854;SDS011;67046;50.088;14.336;2023-02-12T00:47:24;15.20;;;10.50;;
77854;SDS011;67046;50.088;14.336;2023-02-12T00:47:56;14.60;;;10.60;;
77854;SDS011;67046;50.088;14.336;2023-02-12T00:48:28;14.50;;;9.70;;
77854;SDS011;67046;50.088;14.336;2023-02-12T00:49:00;15.80;;;10.50;;
77854;SDS011;67046;50.088;14.336;2023-02-12T00:49:32;16.00;;;10.40;;
77854;SDS011;67046;50.088;14.336;2023-02-12T00:50:36;14.50;;;9.80;;
77854;SDS011;67046;50.088;14.336;2023-02-12T00:51:08;14.80;;;9.60;;
77854;SDS011;67046;50.088;14.336;2023-02-12T00:51:40;14.80;;;10.00;;
77854;SDS011;67046;50.088;14.336;2023-02-12T00:52:12;13.80;;;9.70;;
77854;SDS011;67046;50.088;14.336;2023-02-12T00:52:44;16.20;;;9.80;;
77854;SDS011;67046;50.088;14.336;2023-02-12T00:53:16;14.70;;;10.50;;
77854;SDS011;67046;50.088;14.336;2023-02-12T00:53:48;16.10;;;10.40;;
77854;SDS011;67046;50.088;14.336;2023-02-12T00:54:20;15.40;;;10.60;;
77854;SDS011;67046;50.088;14.336;2023-02-12T00:54:52;16.10;;;10.70;;
77854;SDS011;67046;50.088;14.336;2023-02-12T00:55:24;16.30;;;10.40;;
77854;SDS011;67046;50.088;14.336;2023-02-12T00:55:56;15.00;;;10.50;;
77854;SDS011;67046;50.088;14.336;2023-02-12T00:56:28;13.20;;;9.20;;
77854;SDS011;67046;50.088;14.336;2023-02-12T00:57:00;13.00;;;8.30;;
77854;SDS011;67046;50.088;14.336;2023-02-12T00:57:32;13.90;;;9.20;;
77854;SDS011;67046;50.088;14.336;2023-02-12T00:58:04;13.70;;;8.70;;
77854;SDS011;67046;50.088;14.336;2023-02-12T00:58:37;13.80;;;9.50;;
77854;SDS011;67046;50.088;14.336;2023-02-12T00:59:09;13.50;;;8.90;;
77854;SDS011;67046;50.088;14.336;2023-02-12T00:59:41;14.60;;;9.50;;
77854;SDS011;67046;50.088;14.336;2023-02-12T01:00:46;13.30;;;8.90;;
77854;SDS011;67046;50.088;14.336;2023-02-12T01:01:18;14.90;;;9.30;;
77854;SDS011;67046;50.088;14.336;2023-02-12T01:01:50;13.00;;;9.20;;
77854;SDS011;67046;50.088;14.336;2023-02-12T01:02:24;11.30;;;7.90;;
77854;SDS011;67046;50.088;14.336;2023-02-12T01:02:56;12.20;;;9.00;;
77854;SDS011;67046;50.088;14.336;2023-02-12T01:03:28;15.90;;;10.00;;
77854;SDS011;67046;50.088;14.336;2023-02-12T01:04:00;13.60;;;8.90;;
77854;SDS011;67046;50.088;14.336;2023-02-12T01:04:32;14.40;;;8.90;;
77854;SDS011;67046;50.088;14.336;2023-02-12T01:05:05;14.10;;;8.90;;
77854;SDS011;67046;50.088;14.336;2023-02-12T01:05:37;11.10;;;8.20;;
77854;SDS011;67046;50.088;14.336;2023-02-12T01:06:09;12.80;;;8.50;;
77854;SDS011;67046;50.088;14.336;2023-02-12T01:06:41;12.70;;;7.50;;
77854;SDS011;67046;50.088;14.336;2023-02-12T01:07:13;12.70;;;8.80;;
77854;SDS011;67046;50.088;14.336;2023-02-12T01:07:49;10.70;;;7.70;;
77854;SDS011;67046;50.088;14.336;2023-02-12T01:08:22;11.60;;;7.40;;
77854;SDS011;67046;50.088;14.336;2023-02-12T01:08:54;12.00;;;7.50;;
77854;SDS011;67046;50.088;14.336;2023-02-12T01:09:26;10.40;;;7.60;;
77854;SDS011;67046;50.088;14.336;2023-02-12T01:09:58;11.90;;;7.50;;
77854;SDS011;67046;50.088;14.336;2023-02-12T01:10:30;10.30;;;7.30;;
77854;SDS011;67046;50.088;14.336;2023-02-12T01:11:03;9.60;;;7.00;;
77854;SDS011;67046;50.088;14.336;2023-02-12T01:11:36;10.60;;;7.60;;
77854;SDS011;67046;50.088;14.336;2023-02-12T01:12:40;11.70;;;7.40;;
77854;SDS011;67046;50.088;14.336;2023-02-12T01:13:12;10.70;;;7.50;;
77854;SDS011;67046;50.088;14.336;2023-02-12T01:13:45;12.40;;;7.70;;
77854;SDS011;67046;50.088;14.336;2023-02-12T01:14:17;11.30;;;6.70;;
77854;SDS011;67046;50.088;14.336;2023-02-12T01:14:49;11.60;;;8.30;;
77854;SDS011;67046;50.088;14.336;2023-02-12T01:15:21;10.20;;;7.40;;
77854;SDS011;67046;50.088;14.336;2023-02-12T01:16:00;10.80;;;7.00;;
77854;SDS011;67046;50.088;14.336;2023-02-12T01:17:10;10.30;;;6.60;;
77854;SDS011;67046;50.088;14.336;2023-02-12T01:17:42;11.00;;;7.60;;
77854;SDS011;67046;50.088;14.336;2023-02-12T01:18:14;12.80;;;7.80;;
77854;SDS011;67046;50.088;14.336;2023-02-12T01:18:46;11.20;;;7.60;;
77854;SDS011;67046;50.088;14.336;2023-02-12T01:19:19;10.00;;;6.80;;
77854;SDS011;67046;50.088;14.336;2023-02-12T01:19:55;10.40;;;6.80;;
77854;SDS011;67046;50.088;14.336;2023-02-12T01:20:27;10.50;;;7.40;;
77854;SDS011;67046;50.088;14.336;2023-02-12T01:21:00;9.80;;;6.40;;
77854;SDS011;67046;50.088;14.336;2023-02-12T01:22:05;9.80;;;6.00;;
77854;SDS011;67046;50.088;14.336;2023-02-12T01:22:37;9.90;;;7.00;;
77854;SDS011;67046;50.088;14.336;2023-02-12T01:23:09;10.40;;;7.50;;
77854;SDS011;67046;50.088;14.336;2023-02-12T01:23:41;10.60;;;6.80;;
77854;SDS011;67046;50.088;14.336;2023-02-12T01:24:14;11.40;;;6.80;;
77854;SDS011;67046;50.088;14.336;2023-02-12T01:24:46;11.70;;;8.00;;
77854;SDS011;67046;50.088;14.336;2023-02-12T01:25:18;10.00;;;7.80;;
77854;SDS011;67046;50.088;14.336;2023-02-12T01:25:50;10.60;;;7.10;;
77854;SDS011;67046;50.088;14.336;2023-02-12T01:26:23;10.40;;;7.30;;
77854;SDS011;67046;50.088;14.336;2023-02-12T01:26:58;10.50;;;7.20;;
77854;SDS011;67046;50.088;14.336;2023-02-12T01:27:30;10.90;;;7.10;;
77854;SDS011;67046;50.088;14.336;2023-02-12T01:28:02;11.30;;;7.70;;
77854;SDS011;67046;50.088;14.336;2023-02-12T01:28:34;9.40;;;6.10;;
77854;SDS011;67046;50.088;14.336;2023-02-12T01:29:06;11.40;;;7.70;;
77854;SDS011;67046;50.088;14.336;2023-02-12T01:29:38;10.10;;;7.00;;
77854;SDS011;67046;50.088;14.336;2023-02-12T01:30:15;10.50;;;6.50;;
77854;SDS011;67046;50.088;14.336;2023-02-12T01:30:47;10.50;;;7.10;;
77854;SDS011;67046;50.088;14.336;2023-02-12T01:31:21;10.30;;;6.70;;
77854;SDS011;67046;50.088;14.336;2023-02-12T01:31:55;12.60;;;6.80;;
77854;SDS011;67046;50.088;14.336;2023-02-12T01:32:27;11.30;;;7.20;;
77854;SDS011;67046;50.088;14.336;2023-02-12T01:32:59;9.90;;;6.60;;
77854;SDS011;67046;50.088;14.336;2023-02-12T01:33:31;10.00;;;6.30;;
77854;SDS011;67046;50.088;14.336;2023-02-12T01:34:04;10.70;;;6.90;;
77854;SDS011;67046;50.088;14.336;2023-02-12T01:34:37;9.90;;;6.60;;
77854;SDS011;67046;50.088;14.336;2023-02-12T01:35:09;10.20;;;7.10;;
77854;SDS011;67046;50.088;14.336;2023-02-12T01:36:14;10.30;;;6.60;;
77854;SDS011;67046;50.088;14.336;2023-02-12T01:36:46;9.70;;;6.30;;
77854;SDS011;67046;50.088;14.336;2023-02-12T01:37:18;9.00;;;6.40;;
77854;SDS011;67046;50.088;14.336;2023-02-12T01:37:50;9.40;;;6.50;;
77854;SDS011;67046;50.088;14.336;2023-02-12T01:38:22;9.30;;;6.90;;
77854;SDS011;67046;50.088;14.336;2023-02-12T01:38:54;10.30;;;7.30;;
77854;SDS011;67046;50.088;14.336;2023-02-12T01:39:28;10.40;;;7.00;;
77854;SDS011;67046;50.088;14.336;2023-02-12T01:40:00;9.50;;;6.90;;
77854;SDS011;67046;50.088;14.336;2023-02-12T01:40:32;9.60;;;6.90;;
77854;SDS011;67046;50.088;14.336;2023-02-12T01:41:09;10.50;;;7.30;;
77854;SDS011;67046;50.088;14.336;2023-02-12T01:41:43;11.70;;;6.80;;
77854;SDS011;67046;50.088;14.336;2023-02-12T01:42:16;10.90;;;7.10;;
77854;SDS011;67046;50.088;14.336;2023-02-12T01:42:51;10.10;;;6.70;;
77854;SDS011;67046;50.088;14.336;2023-02-12T01:46:18;9.70;;;6.10;;
77854;SDS011;67046;50.088;14.336;2023-02-12T01:47:00;10.00;;;6.40;;
77854;SDS011;67046;50.088;14.336;2023-02-12T01:47:34;7.90;;;5.80;;
77854;SDS011;67046;50.088;14.336;2023-02-12T01:48:06;9.70;;;7.20;;
77854;SDS011;67046;50.088;14.336;2023-02-12T01:48:39;10.70;;;7.30;;
77854;SDS011;67046;50.088;14.336;2023-02-12T01:49:20;8.30;;;5.60;;
77854;SDS011;67046;50.088;14.336;2023-02-12T01:49:57;9.70;;;6.50;;
77854;SDS011;67046;50.088;14.336;2023-02-12T01:50:29;10.20;;;6.60;;
77854;SDS011;67046;50.088;14.336;2023-02-12T01:51:01;10.40;;;6.80;;
77854;SDS011;67046;50.088;14.336;2023-02-12T01:51:35;10.70;;;6.30;;
77854;SDS011;67046;50.088;14.336;2023-02-12T01:52:57;8.80;;;6.10;;
77854;SDS011;67046;50.088;14.336;2023-02-12T01:53:32;9.40;;;6.00;;
77854;SDS011;67046;50.088;14.336;2023-02-12T01:54:08;10.00;;;6.50;;
77854;SDS011;67046;50.088;14.336;2023-02-12T01:54:42;9.60;;;6.00;;
77854;SDS011;67046;50.088;14.336;2023-02-12T01:55:47;8.50;;;5.90;;
77854;SDS011;67046;50.088;14.336;2023-02-12T01:56:21;8.10;;;5.50;;
77854;SDS011;67046;50.088;14.336;2023-02-12T01:56:54;9.10;;;5.80;;
77854;SDS011;67046;50.088;14.336;2023-02-12T01:57:27;8.70;;;6.40;;
77854;SDS011;67046;50.088;14.336;2023-02-12T01:58:03;7.90;;;5.60;;
77854;SDS011;67046;50.088;14.336;2023-02-12T01:58:38;8.40;;;5.50;;
77854;SDS011;67046;50.088;14.336;2023-02-12T01:59:13;9.20;;;6.10;;
77854;SDS011;67046;50.088;14.336;2023-02-12T01:59:45;8.20;;;5.80;;
77854;SDS011;67046;50.088;14.336;2023-02-12T02:00:23;10.00;;;5.90;;
77854;SDS011;67046;50.088;14.336;2023-02-12T02:00:56;12.10;;;6.60;;
77854;SDS011;67046;50.088;14.336;2023-02-12T02:01:31;8.80;;;6.20;;
77854;SDS011;67046;50.088;14.336;2023-02-12T02:02:04;11.20;;;6.30;;
77854;SDS011;67046;50.088;14.336;2023-02-12T02:02:36;9.40;;;6.30;;
77854;SDS011;67046;50.088;14.336;2023-02-12T02:03:10;9.10;;;6.10;;
77854;SDS011;67046;50.088;14.336;2023-02-12T02:03:43;10.30;;;7.10;;
77854;SDS011;67046;50.088;14.336;2023-02-12T02:04:20;10.00;;;6.90;;
77854;SDS011;67046;50.088;14.336;2023-02-12T02:04:56;8.30;;;5.70;;
77854;SDS011;67046;50.088;14.336;2023-02-12T02:05:35;9.50;;;6.70;;
77854;SDS011;67046;50.088;14.336;2023-02-12T02:06:30;9.70;;;6.30;;
77854;SDS011;67046;50.088;14.336;2023-02-12T02:07:06;9.10;;;5.70;;
77854;SDS011;67046;50.088;14.336;2023-02-12T02:07:41;10.80;;;6.00;;
77854;SDS011;67046;50.088;14.336;2023-02-12T02:08:14;9.00;;;5.90;;
77854;SDS011;67046;50.088;14.336;2023-02-12T02:08:47;10.10;;;6.10;;
77854;SDS011;67046;50.088;14.336;2023-02-12T02:09:20;9.10;;;6.00;;
77854;SDS011;67046;50.088;14.336;2023-02-12T02:10:24;8.60;;;5.60;;
77854;SDS011;67046;50.088;14.336;2023-02-12T02:10:57;8.70;;;5.90;;
77854;SDS011;67046;50.088;14.336;2023-02-12T02:11:29;9.60;;;5.90;;
77854;SDS011;67046;50.088;14.336;2023-02-12T02:12:19;8.40;;;5.90;;
77854;SDS011;67046;50.088;14.336;2023-02-12T02:13:10;9.60;;;6.10;;
77854;SDS011;67046;50.088;14.336;2023-02-12T02:14:01;9.70;;;5.80;;
77854;SDS011;67046;50.088;14.336;2023-02-12T02:15:26;8.20;;;5.00;;
77854;SDS011;67046;50.088;14.336;2023-02-12T02:16:08;10.20;;;5.70;;
77854;SDS011;67046;50.088;14.336;2023-02-12T02:16:56;8.50;;;5.60;;
77854;SDS011;67046;50.088;14.336;2023-02-12T02:24:58;10.60;;;5.80;;
77854;SDS011;67046;50.088;14.336;2023-02-12T02:31:32;9.30;;;5.20;;
77854;SDS011;67046;50.088;14.336;2023-02-12T02:33:12;11.80;;;6.80;;
77854;SDS011;67046;50.088;14.336;2023-02-12T02:34:17;8.60;;;5.20;;
77854;SDS011;67046;50.088;14.336;2023-02-12T02:35:18;8.10;;;5.20;;
77854;SDS011;67046;50.088;14.336;2023-02-12T02:37:46;8.60;;;5.70;;
77854;SDS011;67046;50.088;14.336;2023-02-12T02:38:27;9.10;;;5.50;;
77854;SDS011;67046;50.088;14.336;2023-02-12T02:39:16;11.00;;;6.00;;
77854;SDS011;67046;50.088;14.336;2023-02-12T02:40:18;9.20;;;5.60;;
77854;SDS011;67046;50.088;14.336;2023-02-12T02:41:05;9.50;;;5.50;;
77854;SDS011;67046;50.088;14.336;2023-02-12T02:41:46;8.80;;;5.40;;
77854;SDS011;67046;50.088;14.336;2023-02-12T02:42:33;9.50;;;5.30;;
77854;SDS011;67046;50.088;14.336;2023-02-12T02:43:14;8.00;;;5.20;;
77854;SDS011;67046;50.088;14.336;2023-02-12T02:43:49;9.70;;;5.80;;
77854;SDS011;67046;50.088;14.336;2023-02-12T02:44:24;9.90;;;6.80;;
77854;SDS011;67046;50.088;14.336;2023-02-12T02:45:10;10.20;;;6.20;;
77854;SDS011;67046;50.088;14.336;2023-02-12T02:45:46;11.30;;;6.20;;
77854;SDS011;67046;50.088;14.336;2023-02-12T02:46:25;10.70;;;6.10;;
77854;SDS011;67046;50.088;14.336;2023-02-12T02:47:03;8.60;;;5.90;;
77854;SDS011;67046;50.088;14.336;2023-02-12T02:47:40;9.60;;;5.60;;
77854;SDS011;67046;50.088;14.336;2023-02-12T02:48:33;10.30;;;6.10;;
77854;SDS011;67046;50.088;14.336;2023-02-12T02:49:10;9.40;;;6.40;;
77854;SDS011;67046;50.088;14.336;2023-02-12T02:49:53;9.50;;;5.30;;
77854;SDS011;67046;50.088;14.336;2023-02-12T02:50:30;8.90;;;5.40;;
77854;SDS011;67046;50.088;14.336;2023-02-12T02:51:16;8.80;;;5.90;;
77854;SDS011;67046;50.088;14.336;2023-02-12T02:51:53;9.20;;;5.40;;
77854;SDS011;67046;50.088;14.336;2023-02-12T02:52:36;7.50;;;5.00;;
77854;SDS011;67046;50.088;14.336;2023-02-12T02:53:36;9.00;;;5.60;;
77854;SDS011;67046;50.088;14.336;2023-02-12T02:54:15;7.70;;;4.80;;
77854;SDS011;67046;50.088;14.336;2023-02-12T02:54:55;9.60;;;5.90;;
77854;SDS011;67046;50.088;14.336;2023-02-12T02:55:37;9.30;;;5.50;;
77854;SDS011;67046;50.088;14.336;2023-02-12T02:56:15;6.80;;;4.90;;
77854;SDS011;67046;50.088;14.336;2023-02-12T02:56:51;10.40;;;5.90;;
77854;SDS011;67046;50.088;14.336;2023-02-12T02:58:05;8.30;;;5.30;;
77854;SDS011;67046;50.088;14.336;2023-02-12T02:58:47;10.90;;;5.90;;
77854;SDS011;67046;50.088;14.336;2023-02-12T02:59:33;10.10;;;5.90;;
77854;SDS011;67046;50.088;14.336;2023-02-12T03:00:11;9.60;;;6.10;;
77854;SDS011;67046;50.088;14.336;2023-02-12T03:00:53;11.60;;;5.70;;
77854;SDS011;67046;50.088;14.336;2023-02-12T03:01:30;8.00;;;5.50;;
77854;SDS011;67046;50.088;14.336;2023-02-12T03:02:14;8.80;;;5.60;;
77854;SDS011;67046;50.088;14.336;2023-02-12T03:03:07;9.50;;;5.60;;
77854;SDS011;67046;50.088;14.336;2023-02-12T03:03:54;8.20;;;5.30;;
77854;SDS011;67046;50.088;14.336;2023-02-12T03:04:34;8.90;;;5.50;;
77854;SDS011;67046;50.088;14.336;2023-02-12T03:05:16;8.00;;;5.40;;
77854;SDS011;67046;50.088;14.336;2023-02-12T03:05:55;8.70;;;5.70;;
77854;SDS011;67046;50.088;14.336;2023-02-12T03:07:14;8.50;;;5.50;;
77854;SDS011;67046;50.088;14.336;2023-02-12T03:07:56;9.30;;;5.90;;
77854;SDS011;67046;50.088;14.336;2023-02-12T03:08:35;8.20;;;5.70;;
77854;SDS011;67046;50.088;14.336;2023-02-12T03:09:15;8.20;;;5.10;;
77854;SDS011;67046;50.088;14.336;2023-02-12T03:09:56;11.50;;;6.40;;
77854;SDS011;67046;50.088;14.336;2023-02-12T03:10:33;8.10;;;5.50;;
77854;SDS011;67046;50.088;14.336;2023-02-12T03:11:12;9.20;;;5.70;;
77854;SDS011;67046;50.088;14.336;2023-02-12T03:11:58;9.80;;;6.40;;
77854;SDS011;67046;50.088;14.336;2023-02-12T03:13:10;9.20;;;5.70;;
77854;SDS011;67046;50.088;14.336;2023-02-12T03:13:48;10.50;;;5.90;;
77854;SDS011;67046;50.088;14.336;2023-02-12T03:14:28;8.00;;;5.70;;
77854;SDS011;67046;50.088;14.336;2023-02-12T03:15:18;9.40;;;6.40;;
77854;SDS011;67046;50.088;14.336;2023-02-12T03:16:42;7.80;;;5.30;;
77854;SDS011;67046;50.088;14.336;2023-02-12T03:17:33;8.60;;;5.40;;
77854;SDS011;67046;50.088;14.336;2023-02-12T03:18:11;8.40;;;5.30;;
77854;SDS011;67046;50.088;14.336;2023-02-12T03:18:54;7.90;;;5.70;;
77854;SDS011;67046;50.088;14.336;2023-02-12T03:19:52;7.50;;;5.30;;
77854;SDS011;67046;50.088;14.336;2023-02-12T03:20:34;10.80;;;5.90;;
77854;SDS011;67046;50.088;14.336;2023-02-12T03:21:13;10.50;;;5.30;;
77854;SDS011;67046;50.088;14.336;2023-02-12T03:21:50;8.10;;;5.10;;
77854;SDS011;67046;50.088;14.336;2023-02-12T03:22:29;8.90;;;5.80;;
77854;SDS011;67046;50.088;14.336;2023-02-12T03:23:26;8.20;;;6.20;;
77854;SDS011;67046;50.088;14.336;2023-02-12T03:24:21;9.30;;;6.00;;
77854;SDS011;67046;50.088;14.336;2023-02-12T03:25:15;7.70;;;5.20;;
77854;SDS011;67046;50.088;14.336;2023-02-12T03:25:54;9.30;;;5.70;;
77854;SDS011;67046;50.088;14.336;2023-02-12T03:26:32;10.10;;;5.60;;
77854;SDS011;67046;50.088;14.336;2023-02-12T03:27:24;10.10;;;6.20;;
77854;SDS011;67046;50.088;14.336;2023-02-12T03:28:11;7.20;;;4.90;;
77854;SDS011;67046;50.088;14.336;2023-02-12T03:28:49;8.40;;;4.90;;
77854;SDS011;67046;50.088;14.336;2023-02-12T03:29:22;9.10;;;5.60;;
77854;SDS011;67046;50.088;14.336;2023-02-12T03:29:54;9.20;;;5.40;;
77854;SDS011;67046;50.088;14.336;2023-02-12T03:30:49;9.70;;;6.00;;
77854;SDS011;67046;50.088;14.336;2023-02-12T03:31:45;9.30;;;5.60;;
77854;SDS011;67046;50.088;14.336;2023-02-12T03:32:46;8.70;;;5.30;;
77854;SDS011;67046;50.088;14.336;2023-02-12T03:33:28;7.60;;;5.20;;
77854;SDS011;67046;50.088;14.336;2023-02-12T03:34:08;8.10;;;5.10;;
77854;SDS011;67046;50.088;14.336;2023-02-12T03:34:50;9.40;;;6.00;;
77854;SDS011;67046;50.088;14.336;2023-02-12T03:35:44;8.70;;;5.40;;
77854;SDS011;67046;50.088;14.336;2023-02-12T03:37:55;9.10;;;5.90;;
77854;SDS011;67046;50.088;14.336;2023-02-12T03:39:33;7.10;;;4.60;;
77854;SDS011;67046;50.088;14.336;2023-02-12T03:40:17;8.60;;;5.40;;
77854;SDS011;67046;50.088;14.336;2023-02-12T03:40:59;7.70;;;4.90;;
77854;SDS011;67046;50.088;14.336;2023-02-12T03:41:54;8.40;;;5.30;;
77854;SDS011;67046;50.088;14.336;2023-02-12T03:43:01;8.10;;;5.20;;
77854;SDS011;67046;50.088;14.336;2023-02-12T03:45:05;6.90;;;4.40;;
77854;SDS011;67046;50.088;14.336;2023-02-12T03:45:45;8.10;;;4.10;;
77854;SDS011;67046;50.088;14.336;2023-02-12T03:46:44;6.80;;;4.50;;
77854;SDS011;67046;50.088;14.336;2023-02-12T03:47:29;8.30;;;5.20;;
77854;SDS011;67046;50.088;14.336;2023-02-12T03:49:14;8.50;;;5.30;;
77854;SDS011;67046;50.088;14.336;2023-02-12T03:50:02;8.90;;;5.40;;
77854;SDS011;67046;50.088;14.336;2023-02-12T03:51:34;8.70;;;5.40;;
77854;SDS011;67046;50.088;14.336;2023-02-12T03:52:08;7.80;;;5.40;;
77854;SDS011;67046;50.088;14.336;2023-02-12T03:52:40;8.80;;;5.80;;
77854;SDS011;67046;50.088;14.336;2023-02-12T03:53:14;8.00;;;5.60;;
77854;SDS011;67046;50.088;14.336;2023-02-12T03:53:46;8.80;;;5.50;;
77854;SDS011;67046;50.088;14.336;2023-02-12T03:54:19;8.20;;;5.50;;
77854;SDS011;67046;50.088;14.336;2023-02-12T03:54:52;9.00;;;5.40;;
77854;SDS011;67046;50.088;14.336;2023-02-12T03:55:59;7.80;;;4.80;;
77854;SDS011;67046;50.088;14.336;2023-02-12T03:56:52;8.40;;;5.20;;
77854;SDS011;67046;50.088;14.336;2023-02-12T03:57:26;8.60;;;5.10;;
77854;SDS011;67046;50.088;14.336;2023-02-12T03:58:02;8.00;;;5.70;;
77854;SDS011;67046;50.088;14.336;2023-02-12T03:58:39;8.90;;;4.80;;
77854;SDS011;67046;50.088;14.336;2023-02-12T03:59:13;9.10;;;5.70;;
77854;SDS011;67046;50.088;14.336;2023-02-12T03:59:45;8.60;;;5.60;;
77854;SDS011;67046;50.088;14.336;2023-02-12T04:00:20;7.60;;;5.60;;
77854;SDS011;67046;50.088;14.336;2023-02-12T04:00:54;8.90;;;5.20;;
77854;SDS011;67046;50.088;14.336;2023-02-12T04:01:27;8.40;;;5.60;;
77854;SDS011;67046;50.088;14.336;2023-02-12T04:01:59;7.90;;;5.30;;
77854;SDS011;67046;50.088;14.336;2023-02-12T04:02:31;8.30;;;5.60;;
77854;SDS011;67046;50.088;14.336;2023-02-12T04:03:04;7.70;;;5.20;;
77854;SDS011;67046;50.088;14.336;2023-02-12T04:03:37;8.50;;;5.20;;
77854;SDS011;67046;50.088;14.336;2023-02-12T04:04:43;7.30;;;4.90;;
77854;SDS011;67046;50.088;14.336;2023-02-12T04:05:20;8.70;;;5.40;;
77854;SDS011;67046;50.088;14.336;2023-02-12T04:05:54;8.00;;;5.10;;
77854;SDS011;67046;50.088;14.336;2023-02-12T04:06:26;7.50;;;5.20;;
77854;SDS011;67046;50.088;14.336;2023-02-12T04:06:59;8.80;;;5.20;;
77854;SDS011;67046;50.088;14.336;2023-02-12T04:07:32;6.80;;;4.80;;
77854;SDS011;67046;50.088;14.336;2023-02-12T04:08:06;7.50;;;4.70;;
77854;SDS011;67046;50.088;14.336;2023-02-12T04:08:40;7.20;;;4.50;;
77854;SDS011;67046;50.088;14.336;2023-02-12T04:09:12;6.00;;;4.00;;